Time;durP1;ratioP1;P1;durP2;ratioP2;P2;SDS_P1;SDS_P2;PMS_P1;PMS_P2;Temp;Humidity;BMP_temperature;BMP_pressure;BME280_temperature;BME280_humidity;BME280_pressure;Samples;Min_cycle;Max_cycle;Signal;HPM_P1;HPM_P2
2023/03/31 00:00:35;;;;;;;28.88;7.80;;;9.80;99.90;;;;;;5050829;28;20072;-69
2023/03/31 00:03:01;;;;;;;23.75;6.90;;;9.80;99.90;;;;;;5033676;28;20064;-69
2023/03/31 00:05:27;;;;;;;34.05;8.00;;;9.80;99.90;;;;;;5032896;28;20402;-69
2023/03/31 00:07:59;;;;;;;25.67;7.90;;;9.90;99.90;;;;;;5051142;28;20098;-69
2023/03/31 00:10:30;;;;;;;24.45;7.55;;;9.90;99.90;;;;;;5017239;28;20071;-69
2023/03/31 00:12:57;;;;;;;26.23;6.63;;;9.80;99.90;;;;;;5033046;28;20114;-69
2023/03/31 00:15:23;;;;;;;28.85;7.53;;;9.80;99.90;;;;;;5053357;28;20045;-69
2023/03/31 00:17:48;;;;;;;37.75;8.55;;;9.80;99.90;;;;;;5055176;28;20394;-69
2023/03/31 00:20:14;;;;;;;22.42;7.45;;;9.80;99.90;;;;;;5053486;28;20036;-69
2023/03/31 00:22:45;;;;;;;28.45;7.25;;;9.80;99.90;;;;;;5037344;28;20123;-69
2023/03/31 00:25:15;;;;;;;35.10;6.90;;;9.70;99.90;;;;;;5054501;28;20040;-69
2023/03/31 00:27:44;;;;;;;29.30;6.22;;;9.70;99.90;;;;;;5036503;28;20493;-68
2023/03/31 00:30:12;;;;;;;30.88;7.20;;;9.70;99.90;;;;;;5054354;28;20401;-70
2023/03/31 00:32:38;;;;;;;26.45;6.43;;;9.70;99.90;;;;;;5020479;28;20037;-69
2023/03/31 00:35:04;;;;;;;28.25;6.00;;;9.70;99.90;;;;;;5037633;28;20095;-69
2023/03/31 00:37:30;;;;;;;21.33;6.10;;;9.70;99.90;;;;;;5016981;28;20534;-69
2023/03/31 00:39:56;;;;;;;29.73;7.47;;;9.70;99.90;;;;;;5035056;28;20120;-69
2023/03/31 00:42:22;;;;;;;28.75;6.90;;;9.70;99.90;;;;;;5008364;28;20062;-69
2023/03/31 00:45:13;;;;;;;31.67;8.15;;;9.70;99.90;;;;;;4997234;28;20057;-69
2023/03/31 00:47:45;;;;;;;30.52;7.55;;;9.70;99.90;;;;;;5014820;28;20091;-69
2023/03/31 00:50:21;;;;;;;25.50;6.05;;;9.70;99.90;;;;;;5014473;28;20041;-69
2023/03/31 00:52:54;;;;;;;26.92;7.35;;;9.70;99.90;;;;;;4997378;28;20443;-69
2023/03/31 00:55:25;;;;;;;32.45;7.57;;;9.60;99.90;;;;;;4996105;28;20497;-69
2023/03/31 00:57:54;;;;;;;26.33;6.28;;;9.60;99.90;;;;;;5014590;28;20077;-69
2023/03/31 01:00:22;;;;;;;22.42;7.10;;;9.60;99.90;;;;;;5007931;28;20037;-69
2023/03/31 01:02:58;;;;;;;23.10;7.68;;;9.60;99.90;;;;;;5012771;28;20056;-68
2023/03/31 01:05:46;;;;;;;24.05;6.13;;;9.60;99.90;;;;;;5012797;28;20033;-68
2023/03/31 01:08:13;;;;;;;24.63;6.53;;;9.60;99.90;;;;;;4996190;28;20034;-68
2023/03/31 01:10:46;;;;;;;22.25;6.68;;;9.50;99.90;;;;;;5013818;28;20438;-69
2023/03/31 01:13:14;;;;;;;27.60;7.72;;;9.50;99.90;;;;;;4980002;28;20042;-68
2023/03/31 01:15:41;;;;;;;25.13;6.57;;;9.50;99.90;;;;;;4997214;28;20387;-68
2023/03/31 01:18:09;;;;;;;33.30;7.90;;;9.50;99.90;;;;;;4995433;28;20042;-69
2023/03/31 01:21:06;;;;;;;33.75;7.25;;;9.50;99.90;;;;;;4980501;28;20034;-69
2023/03/31 01:24:05;;;;;;;26.30;6.40;;;9.50;99.90;;;;;;4996182;28;20045;-68
2023/03/31 01:26:53;;;;;;;26.30;7.15;;;9.50;99.90;;;;;;4996008;28;20053;-68
2023/03/31 01:29:31;;;;;;;25.15;6.32;;;9.40;99.90;;;;;;4996343;28;20049;-68
2023/03/31 01:32:16;;;;;;;26.92;6.57;;;9.50;99.90;;;;;;4979463;28;20491;-68
2023/03/31 01:35:18;;;;;;;32.67;7.28;;;9.40;99.90;;;;;;4996615;28;20077;-68
2023/03/31 01:38:17;;;;;;;24.70;7.45;;;9.30;99.90;;;;;;4995896;28;20036;-68
2023/03/31 01:41:10;;;;;;;37.00;7.38;;;9.30;99.90;;;;;;5013938;28;20119;-68
2023/03/31 01:43:52;;;;;;;27.80;8.80;;;9.20;99.90;;;;;;5031246;28;20414;-68
2023/03/31 01:46:32;;;;;;;30.70;7.10;;;9.20;99.90;;;;;;5014771;28;20045;-68
2023/03/31 01:49:20;;;;;;;29.05;6.53;;;9.20;99.90;;;;;;5016737;28;20042;-68
2023/03/31 01:52:00;;;;;;;24.90;7.78;;;9.20;99.90;;;;;;5032691;28;20033;-68
2023/03/31 01:54:45;;;;;;;24.15;8.02;;;9.10;99.90;;;;;;5035068;28;20041;-68
2023/03/31 01:57:16;;;;;;;28.20;6.97;;;9.10;99.90;;;;;;5035228;28;20037;-68
2023/03/31 02:00:13;;;;;;;25.92;5.85;;;9.10;99.90;;;;;;5052684;28;20033;-68
2023/03/31 02:02:50;;;;;;;25.73;5.60;;;9.10;99.90;;;;;;5033465;28;20130;-68
2023/03/31 02:05:19;;;;;;;20.02;6.05;;;9.10;99.90;;;;;;5052187;28;20045;-69
2023/03/31 02:07:51;;;;;;;26.58;6.85;;;9.20;99.90;;;;;;5053215;28;20099;-69
2023/03/31 02:10:19;;;;;;;21.98;6.78;;;9.20;99.90;;;;;;5034638;28;20110;-69
2023/03/31 02:12:46;;;;;;;21.83;6.15;;;9.20;99.90;;;;;;5018082;28;20041;-68
2023/03/31 02:15:17;;;;;;;29.38;6.03;;;9.20;99.90;;;;;;5052617;28;20124;-68
2023/03/31 02:17:47;;;;;;;20.83;5.55;;;9.30;99.90;;;;;;5035033;28;20033;-68
2023/03/31 02:20:17;;;;;;;33.08;5.95;;;9.20;99.90;;;;;;5031283;28;20083;-68
2023/03/31 02:22:47;;;;;;;20.95;5.82;;;9.30;99.90;;;;;;4998841;28;20490;-68
2023/03/31 02:25:17;;;;;;;33.25;7.13;;;9.30;99.90;;;;;;5014491;28;20073;-68
2023/03/31 02:27:48;;;;;;;27.52;7.00;;;9.30;99.90;;;;;;5014592;28;20364;-68
2023/03/31 02:30:14;;;;;;;18.27;5.88;;;9.40;99.90;;;;;;4998452;28;20451;-69
2023/03/31 02:32:42;;;;;;;23.48;6.75;;;9.40;99.90;;;;;;5015378;28;20037;-69
2023/03/31 02:35:17;;;;;;;24.75;7.20;;;9.40;99.90;;;;;;5031494;28;20039;-68
2023/03/31 02:37:43;;;;;;;29.40;7.70;;;9.40;99.90;;;;;;5031644;28;20044;-68
2023/03/31 02:40:15;;;;;;;34.40;7.07;;;9.50;99.90;;;;;;4998216;28;20373;-69
2023/03/31 02:42:42;;;;;;;19.85;6.10;;;9.40;99.90;;;;;;5014604;28;20141;-68
2023/03/31 02:45:33;;;;;;;18.63;5.75;;;9.40;99.90;;;;;;5032037;28;20152;-69
2023/03/31 02:47:59;;;;;;;25.23;6.45;;;9.40;99.90;;;;;;5008845;28;20072;-69
2023/03/31 02:50:32;;;;;;;16.85;5.53;;;9.40;99.90;;;;;;5031895;28;20453;-68
2023/03/31 02:53:25;;;;;;;22.15;6.00;;;9.40;99.90;;;;;;5032537;28;20041;-69
2023/03/31 02:56:15;;;;;;;24.73;7.18;;;9.40;99.90;;;;;;4997411;28;20132;-69
2023/03/31 02:59:15;;;;;;;25.42;6.13;;;9.40;99.90;;;;;;5052250;28;20120;-69
2023/03/31 03:01:54;;;;;;;26.45;6.22;;;9.30;99.90;;;;;;4988945;28;20088;-69
2023/03/31 03:05:01;;;;;;;20.33;5.53;;;9.40;99.90;;;;;;5033935;28;20052;-69
2023/03/31 03:07:38;;;;;;;;;;;9.30;99.90;;;;;;5052091;28;20501;-69
2023/03/31 03:10:28;;;;;;;18.92;4.80;;;9.30;99.90;;;;;;5033115;28;19917;-68
2023/03/31 03:13:03;;;;;;;19.83;4.57;;;9.30;99.90;;;;;;5034353;28;20045;-68
2023/03/31 03:15:48;;;;;;;19.98;5.05;;;9.30;99.90;;;;;;5050834;28;20045;-68
2023/03/31 03:18:14;;;;;;;18.63;5.78;;;9.30;99.90;;;;;;5051586;28;20037;-68
2023/03/31 03:20:48;;;;;;;23.05;5.25;;;9.30;99.90;;;;;;5018406;28;20053;-68
2023/03/31 03:23:16;;;;;;;24.48;6.70;;;9.30;99.90;;;;;;5030734;28;20573;-69
2023/03/31 03:25:42;;;;;;;18.45;4.68;;;9.30;99.90;;;;;;5039609;28;20511;-68
2023/03/31 03:28:08;;;;;;;23.08;5.70;;;9.30;99.90;;;;;;5033437;28;20038;-68
2023/03/31 03:30:34;;;;;;;18.92;5.00;;;9.40;99.90;;;;;;5017051;28;20452;-69
2023/03/31 03:33:00;;;;;;;20.73;6.32;;;9.40;99.90;;;;;;5052054;28;20048;-68
2023/03/31 03:35:26;;;;;;;18.08;5.47;;;9.40;99.90;;;;;;5051783;28;20041;-68
2023/03/31 03:37:52;;;;;;;19.58;4.80;;;9.40;99.90;;;;;;5051075;28;20402;-69
2023/03/31 03:40:17;;;;;;;17.60;4.88;;;9.40;99.90;;;;;;5016911;28;20040;-69
2023/03/31 03:42:43;;;;;;;20.25;5.70;;;9.40;99.90;;;;;;5043366;28;20077;-68
2023/03/31 03:45:09;;;;;;;21.42;5.90;;;9.50;99.90;;;;;;5012954;28;20521;-69
2023/03/31 03:47:35;;;;;;;25.13;5.63;;;9.50;99.90;;;;;;5014339;28;20045;-69
2023/03/31 03:50:02;;;;;;;25.02;5.75;;;9.50;99.90;;;;;;5033647;28;20048;-68
2023/03/31 03:52:28;;;;;;;19.55;6.10;;;9.50;99.90;;;;;;5018588;28;20099;-68
2023/03/31 03:54:54;;;;;;;18.15;5.53;;;9.50;99.90;;;;;;5055630;28;20517;-68
2023/03/31 03:57:20;;;;;;;23.73;5.22;;;9.50;99.90;;;;;;5055100;28;20036;-68
2023/03/31 03:59:46;;;;;;;16.25;6.22;;;9.50;99.90;;;;;;5037187;28;20393;-69
2023/03/31 04:02:11;;;;;;;15.93;4.68;;;9.50;99.90;;;;;;5054619;28;20489;-69
2023/03/31 04:04:37;;;;;;;18.88;5.10;;;9.50;99.90;;;;;;5037599;28;20044;-69
2023/03/31 04:07:03;;;;;;;15.32;5.45;;;9.50;99.90;;;;;;5054477;28;20037;-69
2023/03/31 04:09:29;;;;;;;15.15;4.75;;;9.50;99.90;;;;;;5020527;28;20474;-68
2023/03/31 04:11:55;;;;;;;26.13;5.85;;;9.60;99.90;;;;;;5036573;28;20090;-69
2023/03/31 04:14:20;;;;;;;17.42;4.80;;;9.50;99.90;;;;;;5020272;28;20044;-69
2023/03/31 04:16:47;;;;;;;14.40;5.30;;;9.50;99.90;;;;;;5036712;28;20052;-69
2023/03/31 04:19:16;;;;;;;19.83;5.93;;;9.50;99.90;;;;;;5033780;28;20065;-69
2023/03/31 04:21:44;;;;;;;19.33;5.78;;;9.50;99.90;;;;;;5001009;28;20029;-68
2023/03/31 04:24:14;;;;;;;13.38;6.20;;;9.50;99.90;;;;;;5034462;28;20597;-68
2023/03/31 04:26:43;;;;;;;19.38;6.88;;;9.50;99.90;;;;;;5034490;28;20072;-68
2023/03/31 04:29:11;;;;;;;20.80;6.90;;;9.50;99.90;;;;;;5016673;28;20037;-69
2023/03/31 04:31:41;;;;;;;16.38;7.03;;;9.50;99.90;;;;;;5035065;28;20092;-69
2023/03/31 04:34:14;;;;;;;18.08;6.45;;;9.60;99.90;;;;;;5024740;28;20072;-69
2023/03/31 04:36:47;;;;;;;17.67;6.30;;;9.60;99.90;;;;;;5054917;28;20124;-69
2023/03/31 04:39:25;;;;;;;21.98;6.90;;;9.60;99.90;;;;;;5036382;28;20072;-69
2023/03/31 04:41:52;;;;;;;17.02;6.65;;;9.60;99.90;;;;;;5036103;28;20059;-69
2023/03/31 04:44:18;;;;;;;23.08;7.82;;;9.60;99.90;;;;;;5054224;28;20053;-70
2023/03/31 04:46:43;;;;;;;16.58;7.22;;;9.60;99.90;;;;;;5049423;28;20037;-69
2023/03/31 04:49:09;;;;;;;20.20;7.65;;;9.60;99.90;;;;;;5033209;28;20108;-69
2023/03/31 04:51:34;;;;;;;17.85;7.40;;;9.60;99.90;;;;;;5017060;28;20029;-69
2023/03/31 04:54:00;;;;;;;18.85;7.53;;;9.60;99.90;;;;;;4999763;28;20128;-69
2023/03/31 04:56:26;;;;;;;14.75;6.95;;;9.60;99.90;;;;;;5016614;28;20049;-70
2023/03/31 04:58:51;;;;;;;18.10;7.05;;;9.70;99.90;;;;;;5000419;28;20038;-69
2023/03/31 05:01:17;;;;;;;17.27;7.28;;;9.70;99.90;;;;;;5015743;28;20164;-69
2023/03/31 05:03:45;;;;;;;15.57;7.88;;;9.70;99.90;;;;;;5034318;28;20045;-69
2023/03/31 05:06:11;;;;;;;15.45;7.10;;;9.60;99.90;;;;;;5016152;28;20047;-69
2023/03/31 05:08:37;;;;;;;15.55;7.53;;;9.70;99.90;;;;;;4999399;28;20045;-69
2023/03/31 05:11:03;;;;;;;20.55;7.47;;;9.70;99.90;;;;;;5033837;28;20048;-69
2023/03/31 05:13:29;;;;;;;19.65;7.70;;;9.70;99.90;;;;;;5016061;28;20049;-69
2023/03/31 05:15:54;;;;;;;20.00;7.82;;;9.70;99.90;;;;;;5033445;28;20039;-68
2023/03/31 05:18:20;;;;;;;20.17;8.23;;;9.70;99.90;;;;;;5033661;28;20049;-68
2023/03/31 05:20:46;;;;;;;14.93;7.03;;;9.80;99.90;;;;;;5016560;28;20041;-68
2023/03/31 05:23:12;;;;;;;20.75;7.95;;;9.70;99.90;;;;;;5015099;28;20128;-69
2023/03/31 05:25:38;;;;;;;15.93;6.75;;;9.70;99.90;;;;;;5016487;28;20049;-68
2023/03/31 05:28:03;;;;;;;18.90;8.10;;;9.70;99.90;;;;;;5033824;28;20120;-68
2023/03/31 05:30:29;;;;;;;19.08;7.40;;;9.80;99.90;;;;;;5015044;28;20048;-68
2023/03/31 05:32:55;;;;;;;20.52;7.65;;;9.80;99.90;;;;;;5033711;28;20048;-68
2023/03/31 05:35:21;;;;;;;18.23;7.93;;;9.80;99.90;;;;;;5015600;28;20041;-69
2023/03/31 05:37:47;;;;;;;17.20;7.30;;;9.80;99.90;;;;;;5015271;28;20048;-68
2023/03/31 05:40:12;;;;;;;16.33;7.45;;;9.80;99.90;;;;;;5015576;28;20075;-69
2023/03/31 05:42:38;;;;;;;17.63;8.35;;;9.80;99.90;;;;;;5015863;28;20057;-68
2023/03/31 05:45:04;;;;;;;17.08;7.60;;;9.80;99.90;;;;;;5030074;28;20045;-69
2023/03/31 05:47:31;;;;;;;16.38;7.90;;;9.80;99.90;;;;;;5035687;28;20397;-69
2023/03/31 05:49:59;;;;;;;18.65;8.07;;;9.80;99.90;;;;;;5036039;28;20401;-69
2023/03/31 05:52:25;;;;;;;15.75;7.20;;;9.80;99.90;;;;;;5052255;28;20041;-69
2023/03/31 05:54:51;;;;;;;25.00;7.80;;;9.80;99.90;;;;;;5018989;28;20041;-69
2023/03/31 05:57:17;;;;;;;17.02;6.88;;;9.80;99.90;;;;;;5051874;28;20111;-68
2023/03/31 05:59:42;;;;;;;17.83;8.55;;;9.80;99.90;;;;;;5035330;28;20401;-69
2023/03/31 06:02:11;;;;;;;16.10;8.18;;;9.80;99.90;;;;;;5018289;28;20045;-69
2023/03/31 06:04:38;;;;;;;18.45;8.13;;;9.80;99.90;;;;;;5052455;28;20387;-68
2023/03/31 06:07:04;;;;;;;16.85;7.90;;;9.80;99.90;;;;;;5052922;28;20116;-68
2023/03/31 06:09:30;;;;;;;14.60;7.72;;;9.80;99.90;;;;;;5035094;28;20125;-69
2023/03/31 06:11:55;;;;;;;15.70;7.68;;;9.80;99.90;;;;;;5026363;28;20037;-68
2023/03/31 06:14:21;;;;;;;15.65;7.65;;;9.90;99.90;;;;;;5014988;28;20049;-68
2023/03/31 06:16:48;;;;;;;15.93;7.93;;;9.80;99.90;;;;;;5015301;28;20037;-68
2023/03/31 06:19:14;;;;;;;18.63;7.97;;;9.90;99.90;;;;;;5013829;28;20073;-68
2023/03/31 06:21:39;;;;;;;15.43;7.78;;;9.90;99.90;;;;;;4998879;28;20501;-68
2023/03/31 06:24:07;;;;;;;15.02;7.55;;;9.90;99.90;;;;;;5014694;28;20041;-68
2023/03/31 06:26:32;;;;;;;19.13;7.57;;;9.90;99.90;;;;;;5032074;28;20037;-68
2023/03/31 06:28:58;;;;;;;14.75;7.20;;;9.90;99.90;;;;;;5032640;28;20475;-68
2023/03/31 06:31:24;;;;;;;15.60;7.57;;;9.90;99.90;;;;;;5032013;28;20047;-68
2023/03/31 06:33:51;;;;;;;11.48;6.28;;;9.90;99.90;;;;;;5031962;28;20102;-68
2023/03/31 06:36:19;;;;;;;12.07;6.45;;;9.90;99.90;;;;;;5014447;28;20045;-68
2023/03/31 06:38:44;;;;;;;14.48;6.07;;;9.90;99.90;;;;;;5032794;28;20037;-68
2023/03/31 06:41:12;;;;;;;12.38;5.97;;;9.90;99.90;;;;;;5036511;28;20375;-68
2023/03/31 06:43:38;;;;;;;15.38;5.22;;;9.90;99.90;;;;;;5018050;28;20053;-68
2023/03/31 06:46:04;;;;;;;12.57;5.43;;;9.90;99.90;;;;;;5034143;28;20413;-68
2023/03/31 06:48:30;;;;;;;13.00;5.38;;;9.90;99.90;;;;;;5033875;28;20037;-68
2023/03/31 06:50:59;;;;;;;10.57;5.38;;;9.90;99.90;;;;;;5052171;28;20159;-68
2023/03/31 06:53:25;;;;;;;9.52;4.97;;;9.90;99.90;;;;;;5033935;28;20095;-68
2023/03/31 06:55:50;;;;;;;16.00;5.53;;;9.90;99.90;;;;;;5033697;28;20477;-68
2023/03/31 06:58:16;;;;;;;10.30;4.93;;;9.90;99.90;;;;;;5033784;28;20037;-68
2023/03/31 07:00:44;;;;;;;11.05;5.20;;;9.90;99.90;;;;;;5051513;28;20123;-69
2023/03/31 07:03:11;;;;;;;8.05;3.88;;;9.90;99.90;;;;;;5034129;28;20049;-68
2023/03/31 07:05:37;;;;;;;9.30;4.82;;;9.90;99.90;;;;;;5049084;28;20047;-68
2023/03/31 07:08:03;;;;;;;10.48;5.25;;;9.90;99.90;;;;;;4997082;28;20124;-68
2023/03/31 07:10:30;;;;;;;15.07;4.95;;;9.90;99.90;;;;;;5014453;28;20081;-68
2023/03/31 07:12:56;;;;;;;10.20;4.30;;;9.90;99.90;;;;;;5014431;28;20055;-68
2023/03/31 07:15:21;;;;;;;10.65;4.65;;;9.90;99.90;;;;;;5013242;28;20026;-69
2023/03/31 07:17:49;;;;;;;12.63;4.30;;;9.90;99.90;;;;;;5018060;28;20033;-69
2023/03/31 07:20:17;;;;;;;8.77;3.85;;;9.90;99.90;;;;;;5013785;28;20406;-69
2023/03/31 07:22:47;;;;;;;9.73;4.03;;;9.90;99.90;;;;;;5013531;28;20482;-68
2023/03/31 07:25:15;;;;;;;12.30;4.22;;;9.90;99.90;;;;;;5016462;28;20398;-69
2023/03/31 07:27:42;;;;;;;11.82;4.85;;;9.90;99.90;;;;;;5002050;28;20042;-68
2023/03/31 07:30:11;;;;;;;9.65;4.18;;;9.90;99.90;;;;;;5017983;28;20049;-68
2023/03/31 07:32:39;;;;;;;7.55;3.72;;;9.90;99.90;;;;;;5029784;28;20129;-68
2023/03/31 07:35:06;;;;;;;9.20;3.78;;;9.90;99.90;;;;;;5053206;28;20112;-68
2023/03/31 07:37:40;;;;;;;10.45;4.63;;;9.90;99.90;;;;;;5052270;28;20517;-68
2023/03/31 07:40:07;;;;;;;8.30;3.88;;;9.90;99.90;;;;;;5035296;28;20438;-68
2023/03/31 07:42:34;;;;;;;12.23;4.28;;;9.90;99.90;;;;;;5035082;28;20100;-68
2023/03/31 07:45:00;;;;;;;9.75;3.78;;;9.90;99.90;;;;;;5051247;28;20502;-68
2023/03/31 07:47:27;;;;;;;8.60;4.63;;;9.90;99.90;;;;;;5018482;28;20114;-68
2023/03/31 07:49:52;;;;;;;11.57;3.80;;;9.90;99.90;;;;;;5034204;28;20063;-68
2023/03/31 07:52:18;;;;;;;7.22;3.40;;;10.00;99.90;;;;;;5034228;28;20053;-68
2023/03/31 07:54:47;;;;;;;10.35;3.97;;;9.90;99.90;;;;;;5018318;28;20037;-69
2023/03/31 07:57:15;;;;;;;8.63;4.18;;;10.00;99.90;;;;;;5051406;28;20041;-68
2023/03/31 07:59:41;;;;;;;6.30;2.80;;;10.00;99.90;;;;;;5035140;28;20478;-68
2023/03/31 08:02:06;;;;;;;8.95;3.70;;;9.90;99.90;;;;;;5029328;28;20081;-68
2023/03/31 08:04:32;;;;;;;7.20;2.95;;;9.90;99.90;;;;;;5033396;28;20036;-68
2023/03/31 08:06:58;;;;;;;7.30;3.15;;;9.90;99.90;;;;;;5050226;28;20104;-68
2023/03/31 08:09:24;;;;;;;8.57;3.40;;;9.90;99.90;;;;;;5052524;28;21158;-68
2023/03/31 08:11:49;;;;;;;9.32;3.38;;;9.80;99.90;;;;;;5033018;28;20127;-68
2023/03/31 08:14:15;;;;;;;7.13;3.25;;;9.90;99.90;;;;;;5019801;28;20153;-69
2023/03/31 08:16:41;;;;;;;12.40;6.95;;;9.90;99.90;;;;;;4999136;28;20034;-69
2023/03/31 08:19:06;;;;;;;7.50;3.40;;;9.90;99.90;;;;;;5019564;28;20045;-70
2023/03/31 08:21:32;;;;;;;7.80;3.42;;;9.90;99.90;;;;;;5034625;28;20052;-70
2023/03/31 08:23:58;;;;;;;9.02;4.80;;;9.90;99.90;;;;;;5018221;28;20063;-70
2023/03/31 08:26:24;;;;;;;11.70;3.78;;;9.90;99.90;;;;;;5033451;28;20037;-71
2023/03/31 08:28:51;;;;;;;7.28;3.90;;;9.90;99.90;;;;;;5034947;28;20156;-70
2023/03/31 08:31:19;;;;;;;8.65;3.65;;;9.90;99.90;;;;;;5010944;28;20513;-70
2023/03/31 08:33:45;;;;;;;6.97;4.03;;;9.90;99.90;;;;;;5028285;28;20494;-70
2023/03/31 08:36:12;;;;;;;9.35;3.90;;;9.90;99.90;;;;;;5036394;28;20064;-70
2023/03/31 08:38:45;;;;;;;8.50;3.95;;;9.90;99.90;;;;;;5018874;28;20375;-70
2023/03/31 08:41:23;;;;;;;9.02;4.25;;;10.00;99.90;;;;;;5041312;28;20076;-70
2023/03/31 08:43:53;;;;;;;10.40;4.78;;;10.00;99.90;;;;;;5026405;28;20057;-72
2023/03/31 08:46:19;;;;;;;9.80;4.13;;;10.00;99.90;;;;;;5033314;28;20077;-71
2023/03/31 08:48:54;;;;;;;10.75;3.85;;;10.10;99.90;;;;;;5012481;28;20148;-70
2023/03/31 08:51:23;;;;;;;;;;;10.10;99.90;;;;;;5043196;28;20059;-70
2023/03/31 08:54:03;;;;;;;11.43;3.97;;;10.10;99.90;;;;;;5051675;28;19932;-72
2023/03/31 08:56:33;;;;;;;11.35;4.28;;;10.20;99.90;;;;;;5033866;28;20041;-70
2023/03/31 08:59:01;;;;;;;8.82;3.90;;;10.20;99.90;;;;;;5051710;28;20154;-70
2023/03/31 09:01:45;;;;;;;9.18;4.10;;;10.30;99.90;;;;;;5033089;28;20045;-70
2023/03/31 09:04:26;;;;;;;6.28;3.85;;;10.30;99.90;;;;;;5044003;28;20041;-70
2023/03/31 09:07:15;;;;;;;8.20;4.20;;;10.40;99.90;;;;;;5045613;28;20071;-70
2023/03/31 09:09:58;;;;;;;7.78;4.07;;;10.50;99.90;;;;;;5014010;28;20132;-71
2023/03/31 09:12:34;;;;;;;8.95;4.28;;;10.60;99.90;;;;;;5021807;28;20047;-71
2023/03/31 09:15:05;;;;;;;9.85;4.32;;;10.70;99.90;;;;;;5015709;28;20063;-71
2023/03/31 09:17:37;;;;;;;9.35;4.70;;;10.80;99.90;;;;;;5046236;28;20037;-71
2023/03/31 09:20:15;;;;;;;8.20;4.10;;;10.90;99.90;;;;;;5033167;28;20037;-71
2023/03/31 09:22:47;;;;;;;10.25;4.85;;;10.90;99.90;;;;;;5032602;28;20048;-71
2023/03/31 09:25:17;;;;;;;8.82;3.80;;;11.00;99.90;;;;;;5033005;28;20048;-71
2023/03/31 09:27:44;;;;;;;11.30;4.10;;;11.00;99.90;;;;;;5026359;28;20076;-71
2023/03/31 09:30:25;;;;;;;10.55;4.93;;;11.00;99.90;;;;;;5037332;28;20141;-71
2023/03/31 09:33:14;;;;;;;7.97;3.88;;;11.10;99.90;;;;;;4997152;28;20045;-70
2023/03/31 09:35:40;;;;;;;8.15;3.53;;;11.10;99.90;;;;;;5019499;28;20750;-70
2023/03/31 09:38:06;;;;;;;10.85;3.92;;;11.10;99.90;;;;;;5032868;28;20047;-70
2023/03/31 09:40:33;;;;;;;13.27;4.45;;;11.10;99.90;;;;;;5023018;28;20068;-70
2023/03/31 09:43:11;;;;;;;7.32;4.20;;;11.10;99.90;;;;;;4996551;28;20065;-70
2023/03/31 09:45:37;;;;;;;9.10;3.83;;;11.20;99.90;;;;;;5031476;28;20581;-71
2023/03/31 09:48:17;;;;;;;11.32;3.78;;;11.30;99.90;;;;;;5012880;28;20041;-70
2023/03/31 09:50:58;;;;;;;6.90;3.85;;;11.40;99.90;;;;;;5012957;28;20052;-70
2023/03/31 09:53:50;;;;;;;7.22;3.97;;;11.50;99.90;;;;;;5018739;28;20068;-70
2023/03/31 09:56:41;;;;;;;7.65;3.97;;;11.50;99.90;;;;;;5049858;28;20041;-69
2023/03/31 09:59:31;;;;;;;8.20;4.05;;;11.60;99.90;;;;;;5033031;28;20072;-70
2023/03/31 10:02:01;;;;;;;7.07;2.60;;;11.60;99.90;;;;;;5016969;28;20067;-69
2023/03/31 10:04:29;;;;;;;7.13;2.92;;;11.50;99.90;;;;;;5030776;28;20036;-70
2023/03/31 10:06:55;;;;;;;8.15;3.28;;;11.50;99.90;;;;;;5043130;28;20041;-69
2023/03/31 10:09:27;;;;;;;6.65;2.90;;;11.60;99.90;;;;;;5041312;28;20041;-69
2023/03/31 10:12:05;;;;;;;7.30;2.95;;;11.50;99.90;;;;;;5019813;28;20044;-69
2023/03/31 10:14:39;;;;;;;10.23;3.65;;;11.50;99.90;;;;;;5014723;28;20081;-69
2023/03/31 10:17:06;;;;;;;7.45;2.70;;;11.40;99.90;;;;;;5027572;28;20037;-69
2023/03/31 10:19:38;;;;;;;7.03;2.85;;;11.40;99.90;;;;;;5036914;28;20045;-69
2023/03/31 10:22:15;;;;;;;8.57;2.75;;;11.40;99.90;;;;;;5031516;28;20106;-69
2023/03/31 10:24:44;;;;;;;6.63;2.92;;;11.30;99.90;;;;;;5024875;28;20123;-69
2023/03/31 10:27:30;;;;;;;7.72;3.13;;;11.40;99.90;;;;;;4996288;28;20073;-70
2023/03/31 10:30:01;;;;;;;6.32;2.97;;;11.40;99.90;;;;;;5022045;28;20045;-69
2023/03/31 10:32:29;;;;;;;6.30;3.42;;;11.30;99.90;;;;;;5037657;28;20537;-70
2023/03/31 10:34:56;;;;;;;8.60;3.88;;;11.30;99.90;;;;;;5031766;28;20041;-69
2023/03/31 10:37:25;;;;;;;7.85;3.83;;;11.20;99.90;;;;;;5025843;28;20116;-69
2023/03/31 10:40:13;;;;;;;7.50;4.20;;;11.20;99.90;;;;;;5019291;28;20040;-69
2023/03/31 10:42:39;;;;;;;12.57;5.15;;;11.10;99.90;;;;;;5031208;28;20432;-69
2023/03/31 10:45:23;;;;;;;11.02;4.85;;;11.20;99.90;;;;;;5012551;28;20052;-70
2023/03/31 10:47:52;;;;;;;13.05;5.22;;;11.20;99.90;;;;;;5032053;28;20033;-70
2023/03/31 10:50:18;;;;;;;13.38;5.10;;;11.40;99.90;;;;;;5040754;28;20052;-70
2023/03/31 10:52:47;;;;;;;10.60;4.90;;;11.40;99.90;;;;;;5031324;28;20049;-70
2023/03/31 10:55:23;;;;;;;14.40;5.25;;;11.50;99.90;;;;;;5014495;28;20068;-69
2023/03/31 10:58:12;;;;;;;8.80;4.45;;;11.70;99.90;;;;;;5032172;28;20037;-70
2023/03/31 11:01:02;;;;;;;9.23;3.92;;;11.90;99.90;;;;;;5031134;28;20037;-70
2023/03/31 11:03:51;;;;;;;8.10;4.07;;;12.00;99.90;;;;;;5029807;28;20051;-70
2023/03/31 11:06:48;;;;;;;11.80;4.25;;;12.00;99.90;;;;;;5015242;28;20053;-70
2023/03/31 11:09:22;;;;;;;8.88;4.35;;;12.10;99.90;;;;;;5029275;28;20051;-69
2023/03/31 11:12:16;;;;;;;10.27;4.50;;;12.10;99.90;;;;;;5048967;28;20102;-69
2023/03/31 11:14:54;;;;;;;12.00;4.10;;;12.20;99.90;;;;;;5006289;28;20060;-69
2023/03/31 11:17:31;;;;;;;13.18;4.97;;;12.30;99.90;;;;;;5025779;28;20045;-69
2023/03/31 11:20:29;;;;;;;12.52;4.93;;;12.40;99.90;;;;;;5036354;28;20248;-69
2023/03/31 11:23:14;;;;;;;9.65;4.30;;;12.60;99.90;;;;;;5035849;28;20037;-69
2023/03/31 11:25:55;;;;;;;9.30;4.07;;;12.70;99.90;;;;;;5041332;28;20044;-69
2023/03/31 11:28:25;;;;;;;14.88;4.65;;;12.80;99.90;;;;;;5029995;28;20048;-69
2023/03/31 11:31:03;;;;;;;7.45;3.72;;;12.90;99.90;;;;;;5030631;28;20072;-70
2023/03/31 11:33:59;;;;;;;11.13;3.95;;;12.90;99.90;;;;;;5031070;28;20052;-70
2023/03/31 11:36:40;;;;;;;13.15;4.38;;;12.90;99.90;;;;;;5046974;28;20041;-70
2023/03/31 11:39:36;;;;;;;9.40;3.63;;;12.80;99.90;;;;;;5024849;28;20041;-69
2023/03/31 11:42:11;;;;;;;9.02;3.78;;;12.90;99.90;;;;;;5010710;28;20056;-67
2023/03/31 11:44:45;;;;;;;11.57;4.25;;;12.90;99.90;;;;;;5043277;28;20049;-69
2023/03/31 11:47:19;;;;;;;12.65;4.47;;;13.00;99.90;;;;;;5030705;28;20052;-69
2023/03/31 11:49:53;;;;;;;11.35;4.28;;;13.00;99.90;;;;;;5013780;28;20044;-68
2023/03/31 11:52:29;;;;;;;8.73;3.78;;;13.00;99.90;;;;;;5041356;28;20053;-69
2023/03/31 11:55:14;;;;;;;8.13;3.50;;;13.00;99.90;;;;;;5025722;28;20044;-68
2023/03/31 11:58:01;;;;;;;8.77;3.08;;;13.00;99.90;;;;;;5026108;28;20112;-68
2023/03/31 12:00:35;;;;;;;8.40;2.83;;;13.00;99.90;;;;;;5019565;28;20072;-68
2023/03/31 12:03:03;;;;;;;9.13;2.50;;;13.00;99.90;;;;;;5047594;28;20387;-68
2023/03/31 12:05:32;;;;;;;7.10;3.35;;;13.00;99.90;;;;;;5048355;28;20055;-68
2023/03/31 12:08:04;;;;;;;7.93;2.90;;;12.80;99.90;;;;;;5028732;28;20052;-68
2023/03/31 12:10:50;;;;;;;7.88;2.65;;;12.80;99.90;;;;;;5014330;28;20044;-68
2023/03/31 12:13:50;;;;;;;9.75;3.20;;;12.80;99.90;;;;;;5048267;28;20477;-68
2023/03/31 12:16:21;;;;;;;9.10;3.00;;;12.80;99.90;;;;;;5028668;28;20041;-68
2023/03/31 12:19:13;;;;;;;5.50;2.45;;;12.80;99.90;;;;;;5028863;28;20048;-67
2023/03/31 12:21:46;;;;;;;7.65;2.53;;;12.80;99.90;;;;;;5046775;28;20033;-67
2023/03/31 12:24:12;;;;;;;8.38;3.25;;;12.60;99.90;;;;;;5021371;28;20052;-69
2023/03/31 12:26:57;;;;;;;10.77;3.72;;;12.60;99.90;;;;;;5017360;28;20045;-68
2023/03/31 12:29:46;;;;;;;8.95;3.35;;;12.50;99.90;;;;;;5034244;28;20075;-69
2023/03/31 12:32:17;;;;;;;8.68;2.88;;;12.50;99.90;;;;;;5020960;28;20190;-69
2023/03/31 12:35:07;;;;;;;11.90;3.38;;;12.40;99.90;;;;;;5048419;28;20040;-70
2023/03/31 12:37:39;;;;;;;7.57;2.75;;;12.50;99.90;;;;;;5029412;28;20033;-70
2023/03/31 12:40:38;;;;;;;9.50;4.20;;;12.50;99.90;;;;;;5049078;28;20507;-71
2023/03/31 12:43:42;;;;;;;9.93;3.20;;;12.70;99.90;;;;;;5039517;28;20068;-70
2023/03/31 12:46:39;;;;;;;10.52;4.22;;;12.70;99.90;;;;;;5020024;28;20060;-70
2023/03/31 12:49:26;;;;;;;8.85;4.57;;;12.80;99.90;;;;;;5025673;28;20059;-70
2023/03/31 12:51:58;;;;;;;9.05;3.72;;;12.90;99.90;;;;;;5042556;28;20094;-70
2023/03/31 12:54:42;;;;;;;13.55;4.32;;;13.00;99.90;;;;;;5032669;28;20114;-70
2023/03/31 12:57:08;;;;;;;8.75;4.10;;;13.00;99.90;;;;;;5033091;28;20084;-70
2023/03/31 12:59:38;;;;;;;8.40;3.78;;;12.90;99.90;;;;;;5033430;28;20102;-70
2023/03/31 13:02:24;;;;;;;9.60;3.70;;;12.90;99.90;;;;;;5033367;28;20055;-70
2023/03/31 13:04:50;;;;;;;11.88;4.00;;;12.80;99.90;;;;;;5033512;28;20052;-70
2023/03/31 13:07:19;;;;;;;9.07;3.88;;;12.80;99.90;;;;;;5048259;28;20049;-70
2023/03/31 13:09:51;;;;;;;7.22;3.55;;;12.70;99.90;;;;;;5014093;28;20437;-70
2023/03/31 13:12:24;;;;;;;11.73;3.78;;;12.70;99.90;;;;;;5013263;28;20049;-70
2023/03/31 13:14:53;;;;;;;10.45;4.45;;;12.70;99.90;;;;;;5012912;28;20046;-70